Time;durP1;ratioP1;P1;durP2;ratioP2;P2;SDS_P1;SDS_P2;PMS_P1;PMS_P2;Temp;Humidity;BMP_temperature;BMP_pressure;BME280_temperature;BME280_humidity;BME280_pressure;Samples;Min_cycle;Max_cycle;Signal;HPM_P1;HPM_P2
2022/11/05 00:18:28;;;;;;;3.53;2.03;;;16.60;72.70;;;;;;10446518;28;20474;-54
2022/11/05 00:29:08;;;;;;;2.50;1.33;;;16.60;72.70;;;;;;10438874;28;20045;-52
2022/11/05 00:34:08;;;;;;;2.70;1.50;;;16.60;72.60;;;;;;10448774;28;20083;-54
2022/11/05 00:39:09;;;;;;;2.78;1.52;;;16.50;72.50;;;;;;10457854;28;20048;-53
2022/11/05 00:49:29;;;;;;;3.67;1.70;;;16.60;72.50;;;;;;10454938;28;20040;-50
2022/11/05 00:54:29;;;;;;;2.47;1.58;;;16.60;72.40;;;;;;10470576;28;20025;-51
2022/11/05 00:59:30;;;;;;;1.80;1.20;;;16.50;72.30;;;;;;10490916;28;20055;-52
2022/11/05 01:04:31;;;;;;;2.25;1.20;;;16.50;72.20;;;;;;10453345;28;20072;-53
2022/11/05 01:09:31;;;;;;;3.00;1.63;;;16.50;72.20;;;;;;10452504;28;20025;-54
2022/11/05 01:14:32;;;;;;;2.42;1.52;;;16.50;72.30;;;;;;10479158;28;20025;-52
2022/11/05 01:19:33;;;;;;;3.17;1.70;;;16.50;72.20;;;;;;10481894;28;20017;-53
2022/11/05 01:24:33;;;;;;;2.33;1.70;;;16.50;72.30;;;;;;10494176;28;20639;-53
2022/11/05 01:29:34;;;;;;;2.60;1.40;;;16.50;72.30;;;;;;10490218;28;20525;-54
2022/11/05 01:34:35;;;;;;;2.35;1.17;;;16.40;72.30;;;;;;10452421;28;20040;-54
2022/11/05 01:39:35;;;;;;;2.38;1.30;;;16.40;72.30;;;;;;10464203;28;20059;-53
2022/11/05 01:45:17;;;;;;;2.17;1.30;;;16.40;72.20;;;;;;10451914;28;20021;-53
2022/11/05 01:50:36;;;;;;;3.10;1.67;;;16.40;72.30;;;;;;10404313;28;20049;-53
2022/11/05 01:55:42;;;;;;;4.07;1.83;;;16.40;72.30;;;;;;10443005;28;20044;-53
2022/11/05 02:00:43;;;;;;;2.45;1.35;;;16.40;72.20;;;;;;10449872;28;20087;-53
2022/11/05 02:05:47;;;;;;;2.08;1.30;;;16.40;72.20;;;;;;10463522;28;20165;-54
2022/11/05 02:10:48;;;;;;;2.30;1.00;;;16.40;72.20;;;;;;10462605;28;20037;-52
2022/11/05 02:16:14;;;;;;;2.00;1.13;;;16.40;72.20;;;;;;10471217;28;20028;-53
2022/11/05 02:21:47;;;;;;;2.72;1.50;;;16.40;72.20;;;;;;10470562;28;20029;-51
2022/11/05 02:27:35;;;;;;;1.55;0.93;;;16.40;72.10;;;;;;10460213;28;20111;-53
2022/11/05 02:32:51;;;;;;;2.38;1.45;;;16.40;72.10;;;;;;10475405;28;20736;-53
2022/11/05 02:38:07;;;;;;;3.60;1.20;;;16.30;72.00;;;;;;10484396;28;20429;-52
2022/11/05 02:43:29;;;;;;;2.15;1.35;;;16.30;72.00;;;;;;10476510;28;20021;-53
2022/11/05 02:49:12;;;;;;;2.28;1.27;;;16.30;72.00;;;;;;10461258;28;20040;-54
2022/11/05 02:54:20;;;;;;;2.05;1.17;;;16.30;72.00;;;;;;10458271;28;20104;-54
2022/11/05 02:59:20;;;;;;;1.90;1.10;;;16.30;72.00;;;;;;10447288;28;20427;-54
2022/11/05 03:04:23;;;;;;;2.92;1.33;;;16.30;71.90;;;;;;10473748;28;20060;-53
2022/11/05 03:09:43;;;;;;;2.15;1.20;;;16.30;71.60;;;;;;10459845;28;20856;-53
2022/11/05 03:15:03;;;;;;;1.67;1.17;;;16.30;71.60;;;;;;10447135;28;20021;-52
2022/11/05 03:20:23;;;;;;;2.90;1.25;;;16.30;71.70;;;;;;10456687;28;20020;-54
2022/11/05 03:25:24;;;;;;;;;;;16.30;71.60;;;;;;10474767;28;20017;-54
2022/11/05 03:30:25;;;;;;;3.00;1.52;;;16.30;71.50;;;;;;10449130;28;19917;-52
2022/11/05 03:35:33;;;;;;;2.67;0.90;;;16.30;71.50;;;;;;10447105;28;20026;-53
2022/11/05 03:40:37;;;;;;;1.60;1.20;;;16.30;71.60;;;;;;10466416;28;20036;-54
2022/11/05 03:45:46;;;;;;;1.33;0.95;;;16.30;71.70;;;;;;10488079;28;20023;-54
2022/11/05 03:50:56;;;;;;;1.60;1.00;;;16.20;71.60;;;;;;10458797;28;20131;-54
2022/11/05 03:56:12;;;;;;;1.95;1.15;;;16.20;71.60;;;;;;10446516;28;20392;-53
2022/11/05 04:01:14;;;;;;;2.78;1.20;;;16.20;71.70;;;;;;10445535;28;20028;-54
2022/11/05 04:17:05;;;;;;;1.60;0.93;;;16.20;71.70;;;;;;10472859;28;20033;-53
2022/11/05 04:27:25;;;;;;;1.38;0.80;;;16.20;71.70;;;;;;10486312;28;20052;-52
2022/11/05 04:32:25;;;;;;;1.30;0.88;;;16.10;71.60;;;;;;10486559;28;20060;-52
2022/11/05 04:37:26;;;;;;;4.32;1.13;;;16.10;71.60;;;;;;10475505;28;20108;-53
2022/11/05 04:42:27;;;;;;;2.28;1.13;;;16.10;71.60;;;;;;10457104;28;20064;-53
2022/11/05 04:47:28;;;;;;;3.35;0.90;;;16.10;71.70;;;;;;10457851;28;20380;-51
2022/11/05 04:52:28;;;;;;;1.67;0.98;;;16.10;71.70;;;;;;10445572;28;20080;-54
2022/11/05 04:57:29;;;;;;;2.45;1.38;;;16.10;71.60;;;;;;10445179;28;20371;-54
2022/11/05 05:02:30;;;;;;;2.33;1.00;;;16.10;71.60;;;;;;10445409;28;20027;-53
2022/11/05 05:07:32;;;;;;;1.45;0.85;;;16.10;71.40;;;;;;10445393;28;20636;-55
2022/11/05 05:12:33;;;;;;;2.45;1.42;;;16.10;71.30;;;;;;10452768;28;20036;-52
2022/11/05 05:17:34;;;;;;;1.80;0.80;;;16.10;71.20;;;;;;10447404;28;20028;-54
2022/11/05 05:22:35;;;;;;;2.10;1.20;;;16.10;71.20;;;;;;10470819;28;20724;-53
2022/11/05 05:27:35;;;;;;;3.20;1.08;;;16.10;71.20;;;;;;10465385;28;20392;-54
2022/11/05 05:32:36;;;;;;;1.98;1.48;;;16.10;71.10;;;;;;10466629;28;20041;-54
2022/11/05 05:37:37;;;;;;;1.45;0.98;;;16.10;71.10;;;;;;10468631;28;20087;-53
2022/11/05 05:42:37;;;;;;;1.17;0.65;;;16.00;71.10;;;;;;10468257;28;20052;-53
2022/11/05 05:47:38;;;;;;;1.60;1.27;;;16.00;71.10;;;;;;10465955;28;20191;-52
2022/11/05 05:52:39;;;;;;;1.90;1.00;;;16.00;71.20;;;;;;10469148;28;20100;-54
2022/11/05 05:57:39;;;;;;;1.73;1.10;;;16.00;71.30;;;;;;10466795;28;20120;-54
2022/11/05 06:02:40;;;;;;;1.23;0.77;;;16.00;71.30;;;;;;10468939;28;20486;-52
2022/11/05 06:07:41;;;;;;;2.55;1.00;;;16.00;71.40;;;;;;10455730;28;20049;-53
2022/11/05 06:12:42;;;;;;;2.25;0.85;;;16.00;71.30;;;;;;10453422;28;20040;-52
2022/11/05 06:17:43;;;;;;;9.98;1.77;;;16.00;71.80;;;;;;10464804;28;20024;-53
2022/11/05 06:22:54;;;;;;;8.27;1.52;;;16.10;71.50;;;;;;10486929;28;20025;-54
2022/11/05 06:27:55;;;;;;;13.88;1.85;;;16.10;71.50;;;;;;10490972;28;20562;-53
2022/11/05 06:33:02;;;;;;;5.35;1.58;;;16.20;71.70;;;;;;10454499;28;20052;-53
2022/11/05 06:38:03;;;;;;;9.02;1.85;;;16.40;72.50;;;;;;10462781;28;20020;-55
2022/11/05 06:43:04;;;;;;;12.23;2.45;;;16.40;72.60;;;;;;10466868;28;20535;-53
2022/11/05 06:48:05;;;;;;;17.08;2.60;;;16.40;72.70;;;;;;10449334;28;20108;-50
2022/11/05 06:53:05;;;;;;;30.63;3.00;;;16.40;72.10;;;;;;10462008;28;20462;-52
2022/11/05 06:58:06;;;;;;;20.33;2.95;;;16.30;71.80;;;;;;10475037;28;20056;-53
2022/11/05 07:03:09;;;;;;;38.35;4.60;;;16.30;72.00;;;;;;10454119;28;20056;-51
2022/11/05 07:08:10;;;;;;;31.10;6.22;;;16.30;72.70;;;;;;10467201;28;20408;-52
2022/11/05 07:13:11;;;;;;;17.83;3.03;;;16.30;72.30;;;;;;10464448;28;20020;-51
2022/11/05 07:18:11;;;;;;;23.80;4.18;;;16.30;72.30;;;;;;10479806;28;20534;-51
2022/11/05 07:23:14;;;;;;;20.10;3.80;;;16.30;72.40;;;;;;10466173;28;20056;-52
2022/11/05 07:28:14;;;;;;;24.95;4.88;;;16.30;72.30;;;;;;10454626;28;20021;-53
2022/11/05 07:33:15;;;;;;;21.10;4.28;;;16.30;72.50;;;;;;10470068;28;20045;-52
2022/11/05 07:38:16;;;;;;;29.50;5.20;;;16.30;72.50;;;;;;10455727;28;20108;-50
2022/11/05 07:43:16;;;;;;;32.58;6.05;;;16.30;72.90;;;;;;10458160;28;20107;-51
2022/11/05 07:48:17;;;;;;;38.40;8.32;;;16.30;72.70;;;;;;10487886;28;20857;-50
2022/11/05 07:53:19;;;;;;;37.38;6.03;;;16.30;72.90;;;;;;10460559;28;20029;-51
2022/11/05 07:58:20;;;;;;;43.83;5.97;;;16.20;73.20;;;;;;10475957;28;20036;-49
2022/11/05 08:03:20;;;;;;;37.83;7.07;;;16.20;73.30;;;;;;10464804;28;20542;-51
2022/11/05 08:08:21;;;;;;;40.72;7.80;;;16.20;73.20;;;;;;10481717;28;20111;-49
2022/11/05 08:13:22;;;;;;;53.13;8.82;;;16.20;73.50;;;;;;10487582;28;20040;-51
2022/11/05 08:18:30;;;;;;;45.70;8.25;;;16.20;73.70;;;;;;10476213;28;20107;-50
2022/11/05 08:23:31;;;;;;;52.00;8.93;;;16.20;73.30;;;;;;10460276;28;20686;-51
2022/11/05 08:28:32;;;;;;;41.35;7.68;;;16.30;73.40;;;;;;10463016;28;20028;-53
2022/11/05 08:33:33;;;;;;;39.35;6.28;;;16.20;73.60;;;;;;10465982;28;20075;-53
2022/11/05 08:38:34;;;;;;;37.13;6.80;;;16.30;73.40;;;;;;10470341;28;20024;-52
2022/11/05 08:43:35;;;;;;;40.13;5.93;;;16.30;73.50;;;;;;10446073;28;20040;-52
2022/11/05 08:48:35;;;;;;;35.95;7.07;;;16.30;73.70;;;;;;10448357;28;20068;-52
2022/11/05 08:53:36;;;;;;;32.00;7.10;;;16.30;73.70;;;;;;10463791;28;20023;-53
2022/11/05 08:58:36;;;;;;;33.10;7.22;;;16.40;74.00;;;;;;10468676;28;20422;-52
2022/11/05 09:03:37;;;;;;;32.22;6.13;;;16.40;73.90;;;;;;10446380;28;20065;-53
2022/11/05 09:08:38;;;;;;;22.75;6.30;;;16.40;73.50;;;;;;10465173;28;20840;-52
2022/11/05 09:13:39;;;;;;;25.52;6.22;;;16.40;72.40;;;;;;10473588;28;20100;-53
2022/11/05 09:18:41;;;;;;;20.63;6.07;;;16.40;71.40;;;;;;10475560;28;20044;-52
2022/11/05 09:23:42;;;;;;;13.98;6.80;;;16.40;70.60;;;;;;10460327;28;20029;-52
2022/11/05 09:28:43;;;;;;;31.63;7.30;;;16.40;70.20;;;;;;10450962;28;20025;-52
2022/11/05 09:33:44;;;;;;;28.45;8.15;;;16.40;70.10;;;;;;10470142;28;20013;-50
2022/11/05 09:38:45;;;;;;;18.67;5.65;;;16.40;69.60;;;;;;10467271;28;20139;-50
2022/11/05 09:43:55;;;;;;;18.27;5.93;;;16.50;69.20;;;;;;10464214;28;20111;-51
2022/11/05 09:49:04;;;;;;;13.85;5.53;;;16.50;68.90;;;;;;10464372;28;20025;-51
2022/11/05 09:54:05;;;;;;;9.95;4.70;;;16.50;68.70;;;;;;10465820;28;20396;-51
2022/11/05 09:59:30;;;;;;;18.75;5.13;;;16.50;69.00;;;;;;10492144;28;20028;-49
2022/11/05 10:04:32;;;;;;;23.73;5.13;;;16.60;69.60;;;;;;10477797;28;20159;-48
2022/11/05 10:09:46;;;;;;;24.52;6.20;;;16.60;70.00;;;;;;10453337;28;20029;-48
2022/11/05 10:14:58;;;;;;;29.90;5.47;;;16.70;70.50;;;;;;10476560;28;20075;-50
2022/11/05 10:20:22;;;;;;;25.15;6.00;;;16.70;70.70;;;;;;10482126;28;20033;-48
2022/11/05 10:25:32;;;;;;;29.90;7.80;;;16.70;70.90;;;;;;10462276;28;20060;-52
2022/11/05 10:30:33;;;;;;;24.98;6.53;;;16.70;70.80;;;;;;10449082;28;20089;-54
2022/11/05 10:35:48;;;;;;;19.20;5.20;;;16.70;70.90;;;;;;10459577;28;20028;-53
2022/11/05 10:40:57;;;;;;;16.80;4.70;;;16.70;71.00;;;;;;10459987;28;20071;-53
2022/11/05 10:46:05;;;;;;;;;;;16.70;71.10;;;;;;10453725;28;20579;-51
2022/11/05 10:51:07;;;;;;;17.85;5.40;;;16.70;71.10;;;;;;10485066;28;19911;-53
2022/11/05 10:56:41;;;;;;;13.82;4.30;;;16.70;71.20;;;;;;10470991;28;20097;-52
2022/11/05 11:01:42;;;;;;;27.08;5.75;;;16.70;71.10;;;;;;10420548;28;20033;-49
2022/11/05 11:06:51;;;;;;;17.65;4.60;;;16.70;70.90;;;;;;10450113;28;20522;-49
2022/11/05 11:12:13;;;;;;;21.45;5.05;;;16.70;71.20;;;;;;10476592;28;20029;-46
2022/11/05 11:17:29;;;;;;;27.85;5.82;;;16.80;70.80;;;;;;10463906;28;20033;-48
2022/11/05 11:22:30;;;;;;;26.45;6.05;;;16.90;71.30;;;;;;10466474;28;20018;-50
2022/11/05 11:27:33;;;;;;;34.88;5.60;;;16.90;71.40;;;;;;10447419;28;20448;-50
2022/11/05 11:32:37;;;;;;;20.17;5.53;;;16.90;71.70;;;;;;10462329;28;20037;-46
2022/11/05 11:37:40;;;;;;;26.70;5.82;;;16.90;71.70;;;;;;10458204;28;20020;-48
2022/11/05 11:42:47;;;;;;;23.95;6.22;;;16.90;71.70;;;;;;10453445;28;20373;-51
2022/11/05 11:47:49;;;;;;;18.33;4.88;;;16.90;71.70;;;;;;10446834;28;20048;-49
2022/11/05 11:52:51;;;;;;;16.30;3.90;;;16.90;71.70;;;;;;10447122;28;20051;-48
2022/11/05 11:58:04;;;;;;;19.25;4.13;;;16.80;72.00;;;;;;10446846;28;20086;-48
2022/11/05 12:03:39;;;;;;;19.17;4.22;;;16.80;71.40;;;;;;10459262;28;20392;-53
2022/11/05 12:08:55;;;;;;;21.42;5.43;;;16.90;71.70;;;;;;10454876;28;20075;-52
2022/11/05 12:14:29;;;;;;;18.33;4.55;;;16.80;71.80;;;;;;10479216;28;20097;-48
2022/11/05 12:20:14;;;;;;;19.15;5.07;;;16.80;71.80;;;;;;10469387;28;20438;-50
2022/11/05 12:25:54;;;;;;;14.52;4.43;;;16.90;72.20;;;;;;10472344;28;20769;-48
2022/11/05 12:31:17;;;;;;;28.70;5.68;;;16.80;72.50;;;;;;10458887;28;20052;-50
2022/11/05 12:37:13;;;;;;;19.17;4.40;;;16.80;72.40;;;;;;10445004;28;20063;-49
2022/11/05 12:42:45;;;;;;;22.48;5.10;;;16.80;72.10;;;;;;10460355;28;20743;-47
2022/11/05 12:48:23;;;;;;;29.25;6.93;;;16.70;72.20;;;;;;10454996;28;20039;-55
2022/11/05 12:53:48;;;;;;;32.28;6.03;;;16.60;72.00;;;;;;10487436;28;20098;-54
2022/11/05 12:59:18;;;;;;;20.88;6.18;;;16.60;72.10;;;;;;10490925;28;20515;-53
2022/11/05 13:04:46;;;;;;;30.33;5.88;;;16.60;72.20;;;;;;10428621;28;20040;-53
2022/11/05 13:09:55;;;;;;;14.75;4.70;;;16.50;72.20;;;;;;10479388;28;20040;-53
2022/11/05 13:15:03;;;;;;;18.42;4.90;;;16.50;71.80;;;;;;10451895;28;20055;-51
2022/11/05 13:20:27;;;;;;;18.90;5.10;;;16.50;72.20;;;;;;10457168;28;20059;-49
2022/11/05 13:25:32;;;;;;;13.00;4.80;;;16.40;72.20;;;;;;10451662;28;20555;-53
2022/11/05 13:30:40;;;;;;;16.13;4.47;;;16.40;72.20;;;;;;10481765;28;20387;-52
2022/11/05 13:38:58;;;;;;;10.95;4.00;;;16.40;72.20;;;;;;10478457;28;20078;-52
2022/11/05 13:41:46;;;;;;;14.13;4.82;;;16.40;72.20;;;;;;10479906;28;20106;-53
2022/11/05 13:47:12;;;;;;;12.20;4.15;;;16.40;72.80;;;;;;10464326;28;20115;-52
2022/11/05 13:52:37;;;;;;;13.40;4.22;;;16.40;72.20;;;;;;10451552;28;20044;-51
2022/11/05 13:58:08;;;;;;;13.20;4.20;;;16.40;72.20;;;;;;10488081;28;20032;-52
2022/11/05 14:03:19;;;;;;;17.05;3.70;;;16.30;72.20;;;;;;10476704;28;20071;-51
2022/11/05 14:08:26;;;;;;;8.35;3.22;;;16.40;72.30;;;;;;10471994;28;20135;-53
2022/11/05 14:13:43;;;;;;;15.25;3.78;;;16.30;72.30;;;;;;10492330;28;20012;-53
2022/11/05 14:19:12;;;;;;;10.38;3.58;;;16.40;72.40;;;;;;10477537;28;20099;-49
2022/11/05 14:24:22;;;;;;;10.52;3.97;;;16.30;72.90;;;;;;10475612;28;20166;-51
2022/11/05 14:29:23;;;;;;;8.75;3.15;;;16.30;72.30;;;;;;10450245;28;20041;-53
2022/11/05 14:34:47;;;;;;;9.18;3.38;;;16.30;72.20;;;;;;10450475;28;20017;-53
2022/11/05 14:39:48;;;;;;;13.05;3.28;;;16.30;72.20;;;;;;10481044;28;20029;-53
2022/11/05 14:45:25;;;;;;;8.07;4.47;;;16.30;72.20;;;;;;10482051;28;20550;-50
2022/11/05 14:50:32;;;;;;;5.57;2.50;;;16.30;72.30;;;;;;10444861;28;20214;-53
2022/11/05 14:55:38;;;;;;;7.93;2.00;;;16.30;72.30;;;;;;10449298;28;20058;-50
2022/11/05 15:00:43;;;;;;;9.00;3.60;;;16.30;72.30;;;;;;10448151;28;20040;-52
2022/11/05 15:05:46;;;;;;;11.05;3.80;;;16.30;72.30;;;;;;10470725;28;20044;-52
2022/11/05 15:10:47;;;;;;;9.63;2.67;;;16.20;72.20;;;;;;10476628;28;20024;-53
2022/11/05 15:15:49;;;;;;;8.43;3.05;;;16.20;72.20;;;;;;10461653;28;20028;-50
2022/11/05 15:20:55;;;;;;;5.63;2.58;;;16.20;72.20;;;;;;10477595;28;20021;-52
2022/11/05 15:26:10;;;;;;;6.97;2.53;;;16.20;72.20;;;;;;10490357;28;20138;-53
2022/11/05 15:31:13;;;;;;;8.00;2.60;;;16.20;72.20;;;;;;10489195;28;20077;-52
2022/11/05 15:36:24;;;;;;;8.68;2.40;;;16.20;72.30;;;;;;10473614;28;20021;-53
2022/11/05 15:41:32;;;;;;;5.82;2.10;;;16.20;72.30;;;;;;10446230;28;20030;-53
2022/11/05 15:46:33;;;;;;;6.28;2.53;;;16.20;72.20;;;;;;10471643;28;20032;-53
2022/11/05 15:51:34;;;;;;;6.50;2.42;;;16.20;72.20;;;;;;10476921;28;20023;-52
2022/11/05 15:56:48;;;;;;;7.82;3.10;;;16.20;72.20;;;;;;10460420;28;20025;-54
2022/11/05 16:01:55;;;;;;;7.63;2.70;;;16.20;72.20;;;;;;10475847;28;20130;-51
2022/11/05 16:07:08;;;;;;;4.95;2.28;;;16.20;72.20;;;;;;10466823;28;20052;-53
2022/11/05 16:12:18;;;;;;;5.60;2.13;;;16.20;72.30;;;;;;10445139;28;20471;-52
2022/11/05 16:17:24;;;;;;;5.28;2.63;;;16.10;72.20;;;;;;10455811;28;20086;-54
2022/11/05 16:22:42;;;;;;;3.15;1.55;;;16.10;72.20;;;;;;10465511;28;20028;-51
2022/11/05 16:27:45;;;;;;;8.13;3.35;;;16.10;72.20;;;;;;10474440;28;20064;-53
2022/11/05 16:32:46;;;;;;;3.85;2.00;;;16.10;72.20;;;;;;10458165;28;20025;-52
2022/11/05 16:37:48;;;;;;;4.68;2.17;;;16.10;72.20;;;;;;10445121;28;20017;-54
2022/11/05 16:42:53;;;;;;;4.05;2.45;;;16.10;72.20;;;;;;10452296;28;20082;-52
2022/11/05 16:47:53;;;;;;;5.05;1.85;;;16.10;72.20;;;;;;10471079;28;20032;-52
2022/11/05 16:52:54;;;;;;;2.22;1.48;;;16.10;72.20;;;;;;10486877;28;20499;-49
2022/11/05 16:57:55;;;;;;;3.92;1.67;;;16.10;72.20;;;;;;10487096;28;20462;-53
2022/11/05 17:02:56;;;;;;;2.95;1.48;;;16.00;72.10;;;;;;10475112;28;20029;-54
2022/11/05 17:07:57;;;;;;;9.60;2.17;;;16.00;72.10;;;;;;10469846;28;20079;-51
2022/11/05 17:12:57;;;;;;;10.45;2.95;;;16.10;72.20;;;;;;10460937;28;20096;-56
2022/11/05 17:17:58;;;;;;;13.43;2.25;;;16.20;72.20;;;;;;10447796;28;20063;-51
2022/11/05 17:23:00;;;;;;;10.20;2.53;;;16.30;72.00;;;;;;10450078;28;20507;-53
2022/11/05 17:28:01;;;;;;;8.50;2.15;;;16.60;73.80;;;;;;10451707;28;20369;-51
2022/11/05 17:33:03;;;;;;;6.65;2.25;;;16.70;73.70;;;;;;10452823;28;20079;-52
2022/11/05 17:38:03;;;;;;;8.35;2.10;;;16.90;73.30;;;;;;10451395;28;20439;-52
2022/11/05 17:43:04;;;;;;;5.80;2.15;;;17.00;73.40;;;;;;10464657;28;20153;-53
2022/11/05 17:48:07;;;;;;;12.05;2.80;;;16.90;73.50;;;;;;10454732;28;20678;-53
2022/11/05 17:53:08;;;;;;;6.50;2.35;;;16.90;73.60;;;;;;10451423;28;20013;-52
2022/11/05 17:58:09;;;;;;;8.80;2.22;;;16.90;73.70;;;;;;10457612;28;20495;-53
2022/11/05 18:03:11;;;;;;;9.88;2.72;;;16.80;73.30;;;;;;10459265;28;20035;-52
2022/11/05 18:08:12;;;;;;;10.43;2.47;;;16.80;73.50;;;;;;10462811;28;20033;-53
2022/11/05 18:13:13;;;;;;;11.23;3.38;;;16.70;73.40;;;;;;10473559;28;20017;-50
2022/11/05 18:18:14;;;;;;;8.27;2.92;;;16.70;73.70;;;;;;10489703;28;20055;-52
2022/11/05 18:23:14;;;;;;;16.90;3.33;;;16.60;73.70;;;;;;10461491;28;20112;-54
2022/11/05 18:28:15;;;;;;;10.45;2.70;;;16.50;73.90;;;;;;10450722;28;20762;-51
2022/11/05 18:33:16;;;;;;;11.30;3.63;;;16.50;73.80;;;;;;10455037;28;20060;-49
2022/11/05 18:38:17;;;;;;;14.48;3.45;;;16.50;73.90;;;;;;10461514;28;20028;-52
2022/11/05 18:43:17;;;;;;;13.55;3.15;;;16.40;74.10;;;;;;10477864;28;20115;-52
2022/11/05 18:48:18;;;;;;;12.80;3.00;;;16.40;74.50;;;;;;10479238;28;20108;-52
2022/11/05 18:53:19;;;;;;;9.75;3.63;;;16.40;74.40;;;;;;10489850;28;20107;-53
2022/11/05 18:58:19;;;;;;;11.63;3.28;;;16.40;74.50;;;;;;10470973;28;20693;-53
2022/11/05 19:03:20;;;;;;;10.32;2.97;;;16.40;74.30;;;;;;10449316;28;20111;-51
2022/11/05 19:08:21;;;;;;;11.32;2.78;;;16.40;73.80;;;;;;10448629;28;20111;-53
2022/11/05 19:13:21;;;;;;;8.73;2.60;;;16.40;73.60;;;;;;10459199;28;20104;-52
2022/11/05 19:18:22;;;;;;;12.52;3.30;;;16.40;73.80;;;;;;10474708;28;20052;-54
2022/11/05 19:23:23;;;;;;;8.35;2.45;;;16.50;73.80;;;;;;10472352;28;20066;-54
2022/11/05 19:28:23;;;;;;;7.30;2.22;;;16.50;73.80;;;;;;10480699;28;20112;-54
2022/11/05 19:33:24;;;;;;;8.32;2.70;;;16.50;73.70;;;;;;10448229;28;20103;-53
2022/11/05 19:38:25;;;;;;;4.90;2.55;;;16.50;73.70;;;;;;10469314;28;20116;-54
2022/11/05 19:43:26;;;;;;;20.65;3.20;;;16.40;73.40;;;;;;10474050;28;20029;-54
2022/11/05 19:48:26;;;;;;;10.05;2.60;;;16.50;73.70;;;;;;10470363;28;20037;-54
2022/11/05 19:53:27;;;;;;;10.48;3.10;;;16.50;73.50;;;;;;10449000;28;20455;-53
2022/11/05 19:58:28;;;;;;;4.55;2.28;;;16.50;73.60;;;;;;10468910;28;20137;-52
2022/11/05 20:03:28;;;;;;;5.10;2.08;;;16.50;73.50;;;;;;10467035;28;20084;-55
2022/11/05 20:08:30;;;;;;;7.60;2.05;;;16.50;73.60;;;;;;10446878;28;20045;-54
2022/11/05 20:13:31;;;;;;;7.43;2.70;;;16.50;73.60;;;;;;10445270;28;20029;-53
2022/11/05 20:18:32;;;;;;;6.60;1.98;;;16.50;73.30;;;;;;10445098;28;20032;-53
2022/11/05 20:23:34;;;;;;;7.63;2.70;;;16.30;73.50;;;;;;10451090;28;20523;-54
2022/11/05 20:28:37;;;;;;;7.53;2.10;;;16.30;73.20;;;;;;10458141;28;20111;-53
2022/11/05 20:33:39;;;;;;;9.02;3.03;;;16.30;73.30;;;;;;10444498;28;20024;-54
2022/11/05 20:38:40;;;;;;;9.07;2.70;;;16.30;73.40;;;;;;10444822;28;20055;-53
2022/11/05 20:43:41;;;;;;;4.70;2.03;;;16.20;73.40;;;;;;10459929;28;20028;-53
2022/11/05 20:48:42;;;;;;;4.22;1.75;;;16.20;73.40;;;;;;10466850;28;20033;-53
2022/11/05 20:53:45;;;;;;;4.25;1.83;;;16.20;73.40;;;;;;10475118;28;20101;-54
2022/11/05 20:58:46;;;;;;;3.58;1.83;;;16.20;73.30;;;;;;10488238;28;20031;-53
2022/11/05 21:03:47;;;;;;;4.03;1.85;;;16.20;73.30;;;;;;10480648;28;20178;-53
2022/11/05 21:08:49;;;;;;;5.15;1.80;;;16.20;73.20;;;;;;10495045;28;20077;-53
2022/11/05 21:13:50;;;;;;;11.05;2.20;;;16.10;73.10;;;;;;10494716;28;20028;-54
2022/11/05 21:18:50;;;;;;;5.88;1.98;;;16.10;73.10;;;;;;10494025;28;20009;-53
2022/11/05 21:23:51;;;;;;;6.13;2.13;;;16.10;73.00;;;;;;10459051;28;20052;-53
2022/11/05 21:28:52;;;;;;;6.25;2.17;;;16.10;73.10;;;;;;10452838;28;20056;-54
2022/11/05 21:33:52;;;;;;;4.88;1.77;;;16.10;73.00;;;;;;10453269;28;20052;-52
2022/11/05 21:38:53;;;;;;;6.20;1.95;;;16.10;73.00;;;;;;10451315;28;20112;-53
2022/11/05 21:43:54;;;;;;;6.80;1.73;;;16.10;73.00;;;;;;10481096;28;20029;-54
2022/11/05 21:48:55;;;;;;;5.75;1.30;;;16.10;73.00;;;;;;10493070;28;20071;-53
2022/11/05 22:04:45;;;;;;;3.65;1.77;;;16.00;72.80;;;;;;10464345;28;20100;-54
2022/11/05 22:09:46;;;;;;;5.25;2.13;;;16.00;72.80;;;;;;10462937;28;20071;-54
2022/11/05 22:14:47;;;;;;;4.22;2.20;;;16.00;72.80;;;;;;10450244;28;20071;-55
2022/11/05 22:19:48;;;;;;;4.28;1.42;;;16.00;72.80;;;;;;10469126;28;20020;-54
2022/11/05 22:24:48;;;;;;;3.83;1.70;;;16.00;72.80;;;;;;10459424;28;20028;-53
2022/11/05 22:29:49;;;;;;;3.25;1.80;;;16.00;72.80;;;;;;10450474;28;20037;-52
2022/11/05 22:34:50;;;;;;;3.10;1.60;;;16.00;72.80;;;;;;10450185;28;20444;-54
2022/11/05 22:39:51;;;;;;;5.38;1.77;;;16.00;72.80;;;;;;10450215;28;20070;-53
2022/11/05 22:44:51;;;;;;;3.20;1.63;;;16.00;72.80;;;;;;10471541;28;20518;-53
2022/11/05 22:49:52;;;;;;;3.35;1.60;;;16.00;72.80;;;;;;10491199;28;20674;-53
2022/11/05 22:54:52;;;;;;;2.05;1.45;;;16.00;72.70;;;;;;10462650;28;20088;-53
2022/11/05 22:59:53;;;;;;;4.05;1.85;;;16.00;72.80;;;;;;10483486;28;20079;-54
2022/11/05 23:04:54;;;;;;;2.40;1.48;;;16.00;72.80;;;;;;10448909;28;20130;-53
2022/11/05 23:24:02;;;;;;;2.08;1.70;;;15.90;72.70;;;;;;10448727;28;20029;-54
2022/11/05 23:25:58;;;;;;;2.00;1.03;;;15.90;72.60;;;;;;10485519;28;20037;-53
2022/11/05 23:52:15;;;;;;;1.80;1.57;;;15.90;73.20;;;;;;10488606;28;20033;-53
2022/11/05 23:57:16;;;;;;;3.33;1.95;;;15.90;72.60;;;;;;10486562;28;20056;-54
